Time;durP1;ratioP1;P1;durP2;ratioP2;P2;SDS_P1;SDS_P2;PMS_P1;PMS_P2;Temp;Humidity;BMP_temperature;BMP_pressure;BME280_temperature;BME280_humidity;BME280_pressure;Samples;Min_cycle;Max_cycle;Signal;HPM_P1;HPM_P2
2024/02/06 00:01:03;;;;;;;7.83;1.50;;;8.90;99.90;;;;;;4230533;28;20036;-63
2024/02/06 00:03:05;;;;;;;5.37;2.00;;;8.80;99.90;;;;;;4228915;28;20057;-65
2024/02/06 00:05:06;;;;;;;5.40;1.83;;;8.80;99.90;;;;;;4229884;28;20073;-64
2024/02/06 00:07:08;;;;;;;6.20;1.37;;;8.80;99.90;;;;;;4229514;28;20496;-66
2024/02/06 00:09:09;;;;;;;6.03;1.33;;;8.70;99.90;;;;;;4230315;28;20031;-65
2024/02/06 00:11:12;;;;;;;5.93;1.40;;;8.70;99.90;;;;;;4229401;27;20463;-64
2024/02/06 00:13:13;;;;;;;6.10;1.90;;;8.60;99.90;;;;;;4229660;28;20096;-62
2024/02/06 00:15:14;;;;;;;3.70;1.30;;;8.60;99.90;;;;;;4228768;28;20039;-65
2024/02/06 00:17:15;;;;;;;5.13;1.50;;;8.60;99.90;;;;;;4229487;28;20036;-65
2024/02/06 00:19:16;;;;;;;4.13;1.33;;;8.60;99.90;;;;;;4229139;28;20023;-65
2024/02/06 00:21:18;;;;;;;4.13;1.30;;;8.50;99.90;;;;;;4229178;28;20044;-65
2024/02/06 00:23:19;;;;;;;4.50;1.00;;;8.50;99.90;;;;;;4229585;27;20032;-65
2024/02/06 00:25:20;;;;;;;3.40;1.10;;;8.50;99.90;;;;;;4228686;28;20035;-65
2024/02/06 00:27:21;;;;;;;2.53;0.97;;;8.50;99.90;;;;;;4229411;28;20452;-65
2024/02/06 00:29:24;;;;;;;3.47;1.13;;;8.50;99.90;;;;;;4228901;28;20437;-65
2024/02/06 00:31:25;;;;;;;3.30;1.13;;;8.40;99.90;;;;;;4230194;28;20040;-65
2024/02/06 00:33:26;;;;;;;3.93;0.90;;;8.50;99.90;;;;;;4228795;28;20035;-63
2024/02/06 00:35:29;;;;;;;2.00;1.07;;;8.40;99.90;;;;;;4229852;27;20031;-63
2024/02/06 00:37:32;;;;;;;2.90;0.93;;;8.40;99.90;;;;;;4228737;28;20023;-64
2024/02/06 00:39:33;;;;;;;5.00;0.93;;;8.40;99.90;;;;;;4229724;28;20080;-64
2024/02/06 00:41:34;;;;;;;3.27;1.60;;;8.40;99.90;;;;;;4227867;28;20085;-64
2024/02/06 00:43:35;;;;;;;4.83;1.90;;;8.30;99.90;;;;;;4229573;28;20057;-62
2024/02/06 00:45:37;;;;;;;5.07;1.60;;;8.20;99.90;;;;;;4228690;28;20051;-65
2024/02/06 00:47:38;;;;;;;4.97;1.93;;;8.10;99.90;;;;;;4229382;28;20082;-66
2024/02/06 00:49:39;;;;;;;8.97;3.27;;;8.00;99.90;;;;;;4228849;28;20104;-64
2024/02/06 00:51:42;;;;;;;8.40;3.00;;;8.00;99.90;;;;;;4229098;28;20027;-65
2024/02/06 00:53:43;;;;;;;5.97;1.70;;;7.90;99.90;;;;;;4229028;28;20077;-64
2024/02/06 00:55:44;;;;;;;3.03;1.50;;;7.80;99.90;;;;;;4227007;28;20065;-61
2024/02/06 00:57:45;;;;;;;4.27;1.03;;;7.80;99.90;;;;;;4228828;28;20032;-63
2024/02/06 00:59:46;;;;;;;7.67;1.23;;;7.80;99.90;;;;;;4228642;28;20076;-63
2024/02/06 01:01:47;;;;;;;1.50;0.70;;;7.70;99.90;;;;;;4229175;28;20377;-64
2024/02/06 01:03:49;;;;;;;4.43;0.93;;;7.70;99.90;;;;;;4226262;28;20044;-61
2024/02/06 01:05:50;;;;;;;5.80;1.30;;;7.60;99.90;;;;;;4228942;28;20035;-61
2024/02/06 01:07:51;;;;;;;2.47;0.90;;;7.50;99.90;;;;;;4228453;28;20076;-61
2024/02/06 01:09:52;;;;;;;6.40;1.67;;;7.50;99.90;;;;;;4229498;28;20088;-61
2024/02/06 01:11:53;;;;;;;5.47;1.60;;;7.40;99.90;;;;;;4228451;27;20043;-62
2024/02/06 01:13:54;;;;;;;4.90;1.47;;;7.40;99.90;;;;;;4229203;28;20068;-64
2024/02/06 01:15:55;;;;;;;6.97;1.67;;;7.30;99.90;;;;;;4228143;28;20032;-63
2024/02/06 01:17:57;;;;;;;8.43;1.77;;;7.30;99.90;;;;;;4228388;27;20135;-64
2024/02/06 01:19:58;;;;;;;3.20;1.43;;;7.30;99.90;;;;;;4228084;28;20422;-63
2024/02/06 01:21:59;;;;;;;8.20;1.73;;;7.40;99.90;;;;;;4228956;28;20047;-65
2024/02/06 01:24:00;;;;;;;8.37;2.43;;;7.40;99.90;;;;;;4227364;28;20043;-62
2024/02/06 01:26:01;;;;;;;3.13;0.80;;;7.40;99.90;;;;;;4228467;28;20093;-65
2024/02/06 01:28:03;;;;;;;2.83;1.13;;;7.30;99.90;;;;;;4228250;28;20429;-63
2024/02/06 01:30:05;;;;;;;9.17;1.93;;;7.30;99.90;;;;;;4227108;28;20023;-63
2024/02/06 01:32:06;;;;;;;7.40;1.83;;;7.20;99.90;;;;;;4228901;28;20092;-61
2024/02/06 01:34:08;;;;;;;7.47;1.50;;;7.20;99.90;;;;;;4227621;28;20027;-64
2024/02/06 01:36:10;;;;;;;2.20;0.93;;;7.10;99.90;;;;;;4227405;28;20051;-62
2024/02/06 01:38:12;;;;;;;4.30;1.03;;;7.00;99.90;;;;;;4228087;27;20100;-61
2024/02/06 01:40:16;;;;;;;3.43;0.93;;;6.90;99.90;;;;;;4229122;28;20020;-63
2024/02/06 01:42:17;;;;;;;4.87;1.10;;;6.90;99.90;;;;;;4228155;28;20031;-62
2024/02/06 01:44:22;;;;;;;4.73;1.47;;;6.90;99.90;;;;;;4228771;28;20483;-63
2024/02/06 01:46:23;;;;;;;3.77;0.70;;;7.00;99.90;;;;;;4226470;28;20020;-65
2024/02/06 01:48:25;;;;;;;3.60;1.73;;;6.90;99.90;;;;;;4228861;28;20057;-64
2024/02/06 01:50:26;;;;;;;1.63;1.00;;;6.70;99.90;;;;;;4227870;28;20415;-66
2024/02/06 01:52:28;;;;;;;1.83;0.70;;;6.70;99.90;;;;;;4228735;28;20032;-66
2024/02/06 01:54:29;;;;;;;3.27;1.03;;;6.80;99.90;;;;;;4227529;28;20025;-65
2024/02/06 01:56:31;;;;;;;6.47;1.07;;;6.80;99.90;;;;;;4226892;28;20073;-64
2024/02/06 01:58:33;;;;;;;2.67;0.80;;;6.80;99.90;;;;;;4227523;28;20429;-65
2024/02/06 02:00:35;;;;;;;3.03;0.70;;;6.80;99.90;;;;;;4226588;28;20055;-65
2024/02/06 02:02:37;;;;;;;1.87;0.77;;;6.90;99.90;;;;;;4227757;28;20365;-65
2024/02/06 02:04:38;;;;;;;2.13;0.93;;;7.00;99.90;;;;;;4227898;27;20039;-65
2024/02/06 02:06:40;;;;;;;3.27;0.77;;;7.20;99.90;;;;;;4228479;28;20106;-62
2024/02/06 02:08:41;;;;;;;6.37;2.03;;;7.40;99.90;;;;;;4227683;28;20123;-64
2024/02/06 02:10:43;;;;;;;4.10;1.77;;;7.30;99.90;;;;;;4228492;28;20119;-66
2024/02/06 02:12:44;;;;;;;2.23;1.10;;;7.10;99.90;;;;;;4226847;28;20076;-63
2024/02/06 02:14:46;;;;;;;2.57;1.13;;;6.90;99.90;;;;;;4227557;28;20035;-63
2024/02/06 02:16:47;;;;;;;2.70;1.20;;;6.90;99.90;;;;;;4226930;28;20031;-64
2024/02/06 02:18:48;;;;;;;5.70;1.47;;;6.80;99.90;;;;;;4228338;28;20035;-62
2024/02/06 02:20:49;;;;;;;2.00;1.30;;;6.60;99.90;;;;;;4227605;28;20537;-64
2024/02/06 02:22:51;;;;;;;3.53;1.87;;;6.50;99.90;;;;;;4228246;28;20048;-61
2024/02/06 02:24:52;;;;;;;6.33;1.57;;;6.60;99.90;;;;;;4227219;28;20035;-65
2024/02/06 02:26:54;;;;;;;3.03;1.40;;;6.50;99.90;;;;;;4227992;28;20092;-65
2024/02/06 02:28:56;;;;;;;3.33;1.43;;;6.40;99.90;;;;;;4225379;28;20040;-65
2024/02/06 02:30:57;;;;;;;3.50;1.20;;;6.30;99.90;;;;;;4227205;28;20077;-64
2024/02/06 02:32:59;;;;;;;8.40;2.73;;;6.30;99.90;;;;;;4227569;28;20048;-64
2024/02/06 02:35:00;;;;;;;4.63;1.37;;;6.20;99.90;;;;;;4227035;28;20027;-64
2024/02/06 02:37:02;;;;;;;3.43;1.23;;;6.20;99.90;;;;;;4228159;28;20036;-65
2024/02/06 02:39:03;;;;;;;2.37;1.27;;;6.20;99.90;;;;;;4227346;28;20024;-65
2024/02/06 02:41:05;;;;;;;3.90;1.10;;;6.20;99.90;;;;;;4228264;28;20035;-65
2024/02/06 02:43:06;;;;;;;5.73;1.50;;;6.20;99.90;;;;;;4227699;28;20040;-64
2024/02/06 02:45:08;;;;;;;5.93;1.87;;;6.10;99.90;;;;;;4227913;28;20472;-66
2024/02/06 02:47:09;;;;;;;4.27;1.10;;;6.00;99.90;;;;;;4227095;28;20043;-64
2024/02/06 02:49:10;;;;;;;3.10;1.23;;;6.00;99.90;;;;;;4228342;28;20080;-64
2024/02/06 02:51:11;;;;;;;4.00;1.00;;;6.00;99.90;;;;;;4226817;28;20102;-62
2024/02/06 02:53:12;;;;;;;3.33;1.47;;;6.00;99.90;;;;;;4228063;28;20540;-65
2024/02/06 02:55:13;;;;;;;4.67;1.07;;;5.90;99.90;;;;;;4226761;28;20061;-63
2024/02/06 02:57:15;;;;;;;3.13;1.20;;;5.80;99.90;;;;;;4228088;28;20031;-64
2024/02/06 02:59:16;;;;;;;3.93;1.67;;;5.80;99.90;;;;;;4226869;28;20080;-65
2024/02/06 03:01:18;;;;;;;3.50;1.10;;;5.80;99.90;;;;;;4224162;28;20141;-62
2024/02/06 03:03:21;;;;;;;2.40;1.27;;;5.70;99.90;;;;;;4210388;28;20054;-61
2024/02/06 03:05:22;;;;;;;3.90;1.33;;;5.70;99.90;;;;;;4218199;28;20039;-65
2024/02/06 03:07:24;;;;;;;4.43;1.40;;;5.80;99.90;;;;;;4226800;28;20076;-64
2024/02/06 03:09:25;;;;;;;4.10;1.77;;;5.80;99.90;;;;;;4227413;28;20091;-65
2024/02/06 03:11:26;;;;;;;2.77;0.83;;;5.80;99.90;;;;;;4227618;28;20560;-65
2024/02/06 03:13:28;;;;;;;4.97;1.10;;;5.90;99.90;;;;;;4227128;28;20079;-64
2024/02/06 03:15:29;;;;;;;7.03;2.37;;;6.00;99.90;;;;;;4227513;28;20046;-63
2024/02/06 03:17:31;;;;;;;1.90;1.17;;;6.00;99.90;;;;;;4227051;28;20036;-65
2024/02/06 03:19:32;;;;;;;6.93;0.97;;;6.00;99.90;;;;;;4227728;28;20485;-63
2024/02/06 03:21:33;;;;;;;6.80;1.40;;;6.00;99.90;;;;;;4226365;28;20035;-64
2024/02/06 03:23:35;;;;;;;3.73;1.30;;;6.00;99.90;;;;;;4227753;28;20085;-64
2024/02/06 03:25:36;;;;;;;6.90;1.27;;;6.10;99.90;;;;;;4227195;28;20055;-62
2024/02/06 03:27:41;;;;;;;6.00;1.43;;;6.20;99.90;;;;;;4230256;27;20074;-63
2024/02/06 03:29:42;;;;;;;3.53;1.00;;;6.20;99.90;;;;;;4230004;28;20466;-64
2024/02/06 03:31:44;;;;;;;3.93;1.40;;;6.30;99.90;;;;;;4230960;28;20023;-62
2024/02/06 03:33:45;;;;;;;6.37;1.80;;;6.20;99.90;;;;;;4229779;28;20035;-61
2024/02/06 03:35:46;;;;;;;2.77;1.40;;;6.10;99.90;;;;;;4230756;28;20031;-64
2024/02/06 03:37:48;;;;;;;3.70;1.80;;;6.10;99.90;;;;;;4230018;28;20356;-62
2024/02/06 03:39:49;;;;;;;3.13;1.90;;;6.10;99.90;;;;;;4230613;27;20027;-65
2024/02/06 03:41:50;;;;;;;7.30;1.57;;;6.10;99.90;;;;;;4230575;28;20049;-65
2024/02/06 03:43:51;;;;;;;3.33;1.43;;;6.10;99.90;;;;;;4230331;27;20028;-64
2024/02/06 03:45:52;;;;;;;3.93;2.10;;;6.00;99.90;;;;;;4230402;28;20108;-62
2024/02/06 03:47:53;;;;;;;3.53;1.60;;;5.90;99.90;;;;;;4229774;28;20077;-63
2024/02/06 03:49:55;;;;;;;8.30;3.63;;;5.80;99.90;;;;;;4230988;27;20035;-66
2024/02/06 03:51:56;;;;;;;7.67;2.97;;;5.80;99.90;;;;;;4229299;28;20039;-61
2024/02/06 03:53:57;;;;;;;9.30;2.87;;;5.70;99.90;;;;;;4231050;27;20040;-66
2024/02/06 03:55:58;;;;;;;7.83;2.07;;;5.70;99.90;;;;;;4229446;28;20027;-65
2024/02/06 03:57:59;;;;;;;6.40;1.80;;;5.70;99.90;;;;;;4230466;28;20036;-63
2024/02/06 04:00:01;;;;;;;7.80;3.13;;;5.60;99.90;;;;;;4229538;28;20521;-63
2024/02/06 04:02:03;;;;;;;7.20;3.20;;;5.50;99.90;;;;;;4230463;27;20069;-63
2024/02/06 04:04:04;;;;;;;5.83;2.90;;;5.40;99.90;;;;;;4229462;28;20043;-65
2024/02/06 04:06:06;;;;;;;5.03;3.40;;;5.40;99.90;;;;;;4230349;28;20425;-63
2024/02/06 04:08:07;;;;;;;6.27;1.90;;;5.40;99.90;;;;;;4229294;28;20023;-62
2024/02/06 04:10:09;;;;;;;3.53;1.27;;;5.50;99.90;;;;;;4229806;28;20028;-60
2024/02/06 04:12:10;;;;;;;4.90;1.73;;;5.50;99.90;;;;;;4229288;28;20077;-61
2024/02/06 04:14:11;;;;;;;4.83;2.47;;;5.70;99.90;;;;;;4230142;27;20441;-61
2024/02/06 04:16:12;;;;;;;6.63;2.90;;;5.70;99.90;;;;;;4229696;28;20035;-63
2024/02/06 04:18:14;;;;;;;12.00;2.50;;;5.70;99.90;;;;;;4229276;28;20023;-65
2024/02/06 04:20:15;;;;;;;8.63;2.63;;;5.60;99.90;;;;;;4229133;28;20553;-62
2024/02/06 04:22:16;;;;;;;6.03;2.50;;;5.50;99.90;;;;;;4228460;28;20117;-61
2024/02/06 04:24:18;;;;;;;10.47;1.40;;;5.30;99.90;;;;;;4229939;27;20036;-63
2024/02/06 04:26:19;;;;;;;2.97;1.53;;;5.30;99.90;;;;;;4228999;28;20032;-63
2024/02/06 04:28:21;;;;;;;4.47;1.40;;;5.20;99.90;;;;;;4229866;28;20032;-61
2024/02/06 04:30:23;;;;;;;8.00;1.60;;;5.10;99.90;;;;;;4228780;28;20027;-61
2024/02/06 04:32:24;;;;;;;3.97;1.40;;;5.00;99.90;;;;;;4229993;28;20019;-61
2024/02/06 04:34:27;;;;;;;2.47;1.20;;;4.90;99.90;;;;;;4228940;28;20393;-63
2024/02/06 04:36:28;;;;;;;6.10;1.37;;;4.80;99.90;;;;;;4229546;28;20031;-63
2024/02/06 04:38:29;;;;;;;4.33;1.30;;;4.80;99.90;;;;;;4227850;28;20093;-62
2024/02/06 04:40:31;;;;;;;5.33;2.40;;;4.80;99.90;;;;;;4229884;28;20039;-61
2024/02/06 04:42:32;;;;;;;6.20;1.70;;;4.60;99.90;;;;;;4228934;28;20020;-64
2024/02/06 04:44:33;;;;;;;3.70;1.40;;;4.60;99.90;;;;;;4229221;28;20032;-64
2024/02/06 04:46:35;;;;;;;10.43;3.03;;;4.60;99.90;;;;;;4228879;28;20100;-63
2024/02/06 04:48:36;;;;;;;4.43;1.50;;;4.50;99.90;;;;;;4228840;28;20027;-64
2024/02/06 04:50:37;;;;;;;4.40;1.80;;;4.40;99.90;;;;;;4229359;28;20717;-62
2024/02/06 04:52:38;;;;;;;7.53;2.83;;;4.50;99.90;;;;;;4228306;28;20023;-63
2024/02/06 04:54:39;;;;;;;7.43;2.40;;;4.50;99.90;;;;;;4229423;28;21018;-63
2024/02/06 04:56:41;;;;;;;6.63;2.10;;;4.60;99.90;;;;;;4228098;28;20272;-62
2024/02/06 04:58:42;;;;;;;6.17;2.63;;;4.70;99.90;;;;;;4229356;28;20252;-62
2024/02/06 05:00:43;;;;;;;7.27;1.87;;;4.60;99.90;;;;;;4228270;27;20735;-62
2024/02/06 05:02:45;;;;;;;7.70;2.43;;;4.70;99.90;;;;;;4229468;27;20035;-61
2024/02/06 05:04:46;;;;;;;8.00;2.97;;;4.90;99.90;;;;;;4228204;28;20028;-63
2024/02/06 05:06:49;;;;;;;6.47;2.90;;;5.00;99.90;;;;;;4229366;28;20276;-64
2024/02/06 05:08:50;;;;;;;6.10;2.50;;;4.90;99.90;;;;;;4227410;28;20872;-64
2024/02/06 05:10:53;;;;;;;6.60;2.40;;;4.80;99.90;;;;;;4228808;28;20284;-62
2024/02/06 05:12:55;;;;;;;7.57;3.57;;;4.90;99.90;;;;;;4227980;28;20459;-60
2024/02/06 05:14:56;;;;;;;8.50;3.63;;;4.80;99.90;;;;;;4228588;28;20048;-62
2024/02/06 05:16:58;;;;;;;11.93;4.33;;;4.80;99.90;;;;;;4228289;27;20366;-61
2024/02/06 05:18:59;;;;;;;9.23;3.73;;;4.70;99.90;;;;;;4228587;28;20031;-63
2024/02/06 05:21:00;;;;;;;12.93;4.30;;;4.70;99.90;;;;;;4227779;28;20256;-62
2024/02/06 05:23:01;;;;;;;9.50;3.10;;;4.60;99.90;;;;;;4227738;27;20105;-65
2024/02/06 05:25:03;;;;;;;14.17;4.47;;;4.60;99.90;;;;;;4228334;28;20077;-63
2024/02/06 05:27:05;;;;;;;8.67;4.03;;;4.80;99.90;;;;;;4227115;28;20272;-61
2024/02/06 05:29:06;;;;;;;9.13;5.50;;;4.70;99.90;;;;;;4228967;28;20325;-61
2024/02/06 05:31:07;;;;;;;10.60;5.03;;;4.80;99.90;;;;;;4227746;28;20447;-62
2024/02/06 05:33:09;;;;;;;12.00;4.63;;;4.70;99.90;;;;;;4229043;28;20349;-62
2024/02/06 05:35:10;;;;;;;12.10;4.67;;;4.70;99.90;;;;;;4227199;28;20321;-60
2024/02/06 05:37:11;;;;;;;8.40;4.47;;;4.70;99.90;;;;;;4227526;28;20063;-61
2024/02/06 05:39:13;;;;;;;9.30;5.40;;;4.70;99.90;;;;;;4227572;28;20100;-63
2024/02/06 05:41:14;;;;;;;9.60;5.77;;;4.60;99.90;;;;;;4228765;28;20313;-59
2024/02/06 05:43:15;;;;;;;16.67;8.57;;;4.60;99.90;;;;;;4228149;27;20138;-62
2024/02/06 05:45:17;;;;;;;11.83;6.00;;;4.60;99.90;;;;;;4228439;28;20260;-63
2024/02/06 05:47:18;;;;;;;11.97;6.43;;;4.50;99.90;;;;;;4227363;28;20320;-62
2024/02/06 05:49:19;;;;;;;16.20;4.77;;;4.40;99.90;;;;;;4228148;28;20027;-63
2024/02/06 05:51:21;;;;;;;16.30;7.87;;;4.50;99.90;;;;;;4227723;28;20289;-61
2024/02/06 05:53:22;;;;;;;16.73;6.37;;;4.50;99.90;;;;;;4227812;28;20020;-60
2024/02/06 05:55:23;;;;;;;13.93;5.90;;;4.40;99.90;;;;;;4228174;27;20047;-62
2024/02/06 05:57:24;;;;;;;12.80;5.33;;;4.30;99.90;;;;;;4227390;28;20333;-61
2024/02/06 05:59:27;;;;;;;10.50;4.47;;;4.30;99.90;;;;;;4227816;28;20052;-64
2024/02/06 06:01:29;;;;;;;18.07;6.03;;;4.40;99.90;;;;;;4225055;28;20260;-64
2024/02/06 06:03:30;;;;;;;19.83;6.13;;;4.50;99.90;;;;;;4228147;28;20260;-62
2024/02/06 06:05:33;;;;;;;14.13;6.20;;;4.50;99.90;;;;;;4227035;28;20111;-62
2024/02/06 06:07:34;;;;;;;19.10;6.03;;;4.70;99.90;;;;;;4228265;28;20276;-61
2024/02/06 06:09:35;;;;;;;16.97;6.53;;;4.70;99.90;;;;;;4227078;28;20276;-63
2024/02/06 06:11:36;;;;;;;18.03;6.97;;;4.80;99.90;;;;;;4228141;28;20325;-61
2024/02/06 06:13:38;;;;;;;20.10;7.40;;;5.00;99.90;;;;;;4227276;28;20040;-63
2024/02/06 06:15:40;;;;;;;15.53;6.13;;;5.10;99.90;;;;;;4228263;28;20035;-62
2024/02/06 06:17:41;;;;;;;16.50;7.70;;;5.30;99.90;;;;;;4226879;28;20036;-64
2024/02/06 06:19:43;;;;;;;16.83;7.50;;;5.50;99.90;;;;;;4227343;28;20066;-64
2024/02/06 06:21:44;;;;;;;16.30;7.73;;;5.70;99.90;;;;;;4226774;28;20425;-63
2024/02/06 06:23:45;;;;;;;17.40;7.90;;;5.90;99.90;;;;;;4227743;28;20039;-61
2024/02/06 06:25:47;;;;;;;15.40;7.43;;;5.90;99.90;;;;;;4227115;28;20104;-61
2024/02/06 06:27:49;;;;;;;15.10;8.93;;;5.70;99.90;;;;;;4226826;28;20027;-62
2024/02/06 06:29:50;;;;;;;17.47;8.17;;;5.80;99.90;;;;;;4227224;28;20108;-63
2024/02/06 06:31:52;;;;;;;14.57;7.73;;;6.00;99.90;;;;;;4227074;28;20080;-61
2024/02/06 06:33:53;;;;;;;8.23;3.57;;;6.20;99.90;;;;;;4228148;28;20039;-63
2024/02/06 06:35:54;;;;;;;8.53;4.13;;;6.10;99.90;;;;;;4226223;28;20445;-62
2024/02/06 06:37:55;;;;;;;11.40;6.70;;;6.60;99.90;;;;;;4227878;28;20084;-63
2024/02/06 06:39:56;;;;;;;14.33;6.07;;;7.30;99.90;;;;;;4227027;28;20384;-62
2024/02/06 06:41:57;;;;;;;16.53;7.27;;;7.90;99.90;;;;;;4228103;28;20036;-65
2024/02/06 06:43:58;;;;;;;18.07;8.60;;;8.50;99.90;;;;;;4227147;28;20040;-64
2024/02/06 06:46:00;;;;;;;18.97;7.90;;;9.00;99.90;;;;;;4227978;28;20043;-64
2024/02/06 06:48:01;;;;;;;12.03;5.87;;;9.20;99.90;;;;;;4226810;28;20047;-65
2024/02/06 06:50:02;;;;;;;12.23;5.63;;;9.30;99.90;;;;;;4227964;28;20120;-65
2024/02/06 06:52:05;;;;;;;10.90;6.17;;;9.60;99.90;;;;;;4226659;28;20353;-64
2024/02/06 06:54:07;;;;;;;17.47;8.83;;;9.90;99.90;;;;;;4227578;28;20088;-64
2024/02/06 06:56:18;;;;;;;22.00;9.93;;;9.50;99.90;;;;;;4226808;28;20036;-68
2024/02/06 06:58:19;;;;;;;;;;;9.40;99.90;;;;;;4228116;28;20036;-64
2024/02/06 07:00:20;;;;;;;21.03;9.70;;;9.20;99.90;;;;;;4227318;28;20245;-62
2024/02/06 07:02:21;;;;;;;20.17;10.27;;;9.30;99.90;;;;;;4230691;28;20023;-65
2024/02/06 07:04:23;;;;;;;21.37;10.80;;;9.60;99.90;;;;;;4230753;28;20019;-62
2024/02/06 07:06:24;;;;;;;21.70;9.63;;;9.40;99.90;;;;;;4230085;28;20096;-65
2024/02/06 07:08:25;;;;;;;22.37;8.97;;;9.30;99.90;;;;;;4230958;28;20024;-62
2024/02/06 07:10:26;;;;;;;15.37;9.30;;;9.20;99.90;;;;;;4229725;28;20039;-65
2024/02/06 07:12:28;;;;;;;12.00;6.27;;;8.90;99.90;;;;;;4230805;28;20028;-64
2024/02/06 07:14:29;;;;;;;20.60;8.50;;;8.90;99.90;;;;;;4230273;28;20136;-62
2024/02/06 07:16:31;;;;;;;23.27;8.27;;;8.80;99.90;;;;;;4231023;28;20023;-62
2024/02/06 07:18:32;;;;;;;13.30;6.50;;;8.90;99.90;;;;;;4230161;28;20369;-63
2024/02/06 07:20:34;;;;;;;17.73;8.07;;;9.00;99.90;;;;;;4231110;28;20477;-65
2024/02/06 07:22:35;;;;;;;15.20;7.10;;;8.70;99.90;;;;;;4229932;27;20092;-61
2024/02/06 07:24:36;;;;;;;18.10;7.23;;;8.80;99.90;;;;;;4231031;28;20020;-65
2024/02/06 07:26:38;;;;;;;11.47;6.20;;;8.70;99.90;;;;;;4229991;28;20052;-62
2024/02/06 07:28:40;;;;;;;16.90;6.60;;;9.40;99.90;;;;;;4230210;28;20043;-64
2024/02/06 07:30:41;;;;;;;16.30;6.47;;;9.90;99.90;;;;;;4229939;28;20031;-63
2024/02/06 07:32:42;;;;;;;14.07;6.40;;;10.40;99.90;;;;;;4230424;28;20023;-65
2024/02/06 07:34:44;;;;;;;16.23;6.10;;;10.40;99.90;;;;;;4230156;28;20032;-62
2024/02/06 07:36:46;;;;;;;19.70;7.13;;;10.50;99.90;;;;;;4230205;27;20104;-63
2024/02/06 07:38:47;;;;;;;19.37;5.03;;;11.00;99.90;;;;;;4230185;28;20039;-60
2024/02/06 07:40:49;;;;;;;16.67;5.63;;;11.10;99.90;;;;;;4229544;28;20028;-64
2024/02/06 07:42:52;;;;;;;14.13;5.87;;;11.20;99.90;;;;;;4230541;28;20475;-64
2024/02/06 07:44:53;;;;;;;11.90;5.13;;;11.30;99.90;;;;;;4229702;28;20407;-61
2024/02/06 07:46:54;;;;;;;11.27;4.87;;;11.30;99.90;;;;;;4230798;27;20549;-62
2024/02/06 07:48:56;;;;;;;17.37;5.47;;;11.20;99.90;;;;;;4229593;27;20552;-64
2024/02/06 07:50:57;;;;;;;17.40;6.37;;;11.10;99.90;;;;;;4230524;28;20036;-62
2024/02/06 07:52:59;;;;;;;14.80;5.60;;;11.10;99.90;;;;;;4229323;28;20043;-61
2024/02/06 07:55:00;;;;;;;19.30;6.13;;;11.30;99.90;;;;;;4230614;28;20104;-63
2024/02/06 07:57:01;;;;;;;21.77;6.37;;;11.20;99.90;;;;;;4229157;28;20032;-64
2024/02/06 07:59:04;;;;;;;19.03;6.30;;;11.10;99.90;;;;;;4230375;27;20052;-63
2024/02/06 08:01:06;;;;;;;14.90;6.53;;;11.10;99.90;;;;;;4229246;28;20023;-61
2024/02/06 08:03:07;;;;;;;22.47;7.23;;;11.30;99.90;;;;;;4230109;28;20096;-62
2024/02/06 08:05:09;;;;;;;22.33;6.83;;;11.50;99.90;;;;;;4229382;28;20031;-61
2024/02/06 08:07:10;;;;;;;29.47;7.60;;;11.60;99.90;;;;;;4230026;27;20039;-63
2024/02/06 08:09:11;;;;;;;21.57;7.37;;;11.60;99.90;;;;;;4229668;27;20092;-63
2024/02/06 08:11:12;;;;;;;23.17;8.97;;;12.00;99.90;;;;;;4229314;28;20073;-62
2024/02/06 08:13:13;;;;;;;21.63;7.10;;;12.30;99.90;;;;;;4228498;28;20028;-60
2024/02/06 08:15:15;;;;;;;18.57;6.57;;;12.50;99.90;;;;;;4229354;28;20096;-62
2024/02/06 08:17:17;;;;;;;18.50;4.87;;;12.50;99.90;;;;;;4230017;28;20096;-63
2024/02/06 08:19:19;;;;;;;18.83;3.73;;;12.80;98.50;;;;;;4227308;28;20484;-61
2024/02/06 08:21:20;;;;;;;8.00;1.53;;;13.30;96.60;;;;;;4229426;28;20040;-62
2024/02/06 08:23:22;;;;;;;6.33;1.23;;;14.00;93.10;;;;;;4228862;28;20040;-61
2024/02/06 08:25:23;;;;;;;9.17;1.30;;;14.70;90.60;;;;;;4228430;28;20061;-60
2024/02/06 08:27:24;;;;;;;5.90;1.57;;;15.30;86.40;;;;;;4228426;28;20039;-60
2024/02/06 08:29:25;;;;;;;6.63;1.20;;;15.80;82.10;;;;;;4229788;28;20035;-61
2024/02/06 08:31:26;;;;;;;5.60;2.03;;;16.20;80.70;;;;;;4228196;28;20104;-62
2024/02/06 08:33:28;;;;;;;7.13;1.30;;;16.50;78.20;;;;;;4229545;28;20084;-62
2024/02/06 08:35:29;;;;;;;8.77;2.10;;;16.90;78.10;;;;;;4228729;28;20028;-61
2024/02/06 08:37:30;;;;;;;8.35;1.70;;;17.30;76.30;;;;;;4228747;27;20044;-61
2024/02/06 08:39:32;;;;;;;5.53;1.58;;;17.40;74.70;;;;;;4228980;28;20069;-60
2024/02/06 08:41:33;;;;;;;6.65;1.73;;;17.60;73.70;;;;;;4228762;27;20086;-61
2024/02/06 08:43:35;;;;;;;5.82;2.03;;;17.80;68.00;;;;;;4229062;28;20031;-61
2024/02/06 08:45:36;;;;;;;3.15;0.70;;;17.60;66.60;;;;;;4228959;28;20031;-63
2024/02/06 08:47:37;;;;;;;3.22;2.08;;;17.70;66.50;;;;;;4229446;27;20040;-60
2024/02/06 08:49:39;;;;;;;7.07;1.63;;;17.70;65.60;;;;;;4228340;28;20089;-62
2024/02/06 08:51:40;;;;;;;1.90;0.80;;;17.90;65.60;;;;;;4229529;28;20081;-61
2024/02/06 08:53:41;;;;;;;3.78;1.40;;;18.00;64.50;;;;;;4226675;28;20047;-60
2024/02/06 08:55:43;;;;;;;5.65;1.52;;;18.00;63.80;;;;;;4229472;28;20031;-62
2024/02/06 08:57:44;;;;;;;4.40;1.00;;;18.10;63.60;;;;;;4228006;28;20091;-61
2024/02/06 08:59:45;;;;;;;3.53;1.17;;;18.20;63.10;;;;;;4229489;28;20670;-61
2024/02/06 09:01:47;;;;;;;2.17;0.55;;;18.30;63.10;;;;;;4228318;28;20065;-62
2024/02/06 09:03:48;;;;;;;5.32;2.28;;;18.10;61.20;;;;;;4229477;28;20041;-60
2024/02/06 09:05:50;;;;;;;4.05;1.23;;;17.90;60.20;;;;;;4227959;28;20084;-60
2024/02/06 09:07:51;;;;;;;5.22;1.75;;;18.00;61.30;;;;;;4228993;28;20484;-61
2024/02/06 09:09:55;;;;;;;4.78;1.60;;;18.00;61.70;;;;;;4228598;27;20047;-62
2024/02/06 09:11:57;;;;;;;9.18;1.60;;;18.00;61.10;;;;;;4228607;28;20020;-60
2024/02/06 09:13:58;;;;;;;7.57;2.08;;;18.10;58.90;;;;;;4228672;28;20081;-64
2024/02/06 09:16:01;;;;;;;4.93;1.08;;;18.20;59.00;;;;;;4228718;28;20051;-61
2024/02/06 09:18:03;;;;;;;5.32;1.50;;;18.40;58.90;;;;;;4228943;28;20421;-63
2024/02/06 09:20:05;;;;;;;5.60;1.33;;;18.30;57.50;;;;;;4228001;28;20019;-64
2024/02/06 09:22:06;;;;;;;3.15;1.20;;;18.20;57.70;;;;;;4228666;27;20047;-62
2024/02/06 09:24:08;;;;;;;4.20;0.90;;;18.10;57.60;;;;;;4227733;28;20031;-61
2024/02/06 09:26:14;;;;;;;7.60;1.45;;;18.00;57.50;;;;;;4228876;28;20198;-62
2024/02/06 09:28:15;;;;;;;4.30;0.93;;;17.80;56.60;;;;;;4227604;27;20075;-62
2024/02/06 09:30:17;;;;;;;6.97;2.00;;;17.80;57.10;;;;;;4227736;28;20049;-62
2024/02/06 09:32:18;;;;;;;9.43;1.10;;;17.70;56.50;;;;;;4227676;28;20039;-62
2024/02/06 09:34:20;;;;;;;0.98;0.30;;;17.70;56.70;;;;;;4228567;28;20039;-63
2024/02/06 09:36:22;;;;;;;8.02;1.70;;;17.80;55.30;;;;;;4227254;28;20035;-63
2024/02/06 09:38:23;;;;;;;2.38;0.60;;;17.90;55.50;;;;;;4228718;28;20322;-62
2024/02/06 09:40:25;;;;;;;3.60;0.52;;;18.00;53.80;;;;;;4227498;28;20101;-63
2024/02/06 09:42:26;;;;;;;2.33;0.52;;;18.10;54.90;;;;;;4229029;27;20483;-62
2024/02/06 09:44:31;;;;;;;1.95;0.50;;;18.10;54.60;;;;;;4228081;28;20402;-65
2024/02/06 09:46:33;;;;;;;4.32;0.88;;;18.20;53.80;;;;;;4228383;28;20104;-62
2024/02/06 09:48:34;;;;;;;2.75;1.08;;;18.20;54.60;;;;;;4228133;27;20044;-59
2024/02/06 09:50:36;;;;;;;4.43;1.00;;;18.30;54.60;;;;;;4228083;28;20425;-61
2024/02/06 09:52:40;;;;;;;5.47;1.27;;;18.30;54.20;;;;;;4228311;28;20036;-61
2024/02/06 09:54:43;;;;;;;4.38;0.75;;;18.30;53.40;;;;;;4227814;28;20092;-62
2024/02/06 09:56:47;;;;;;;4.90;0.70;;;18.30;53.70;;;;;;4228378;28;20093;-61
2024/02/06 09:58:49;;;;;;;5.97;1.00;;;18.30;53.40;;;;;;4227240;28;20080;-64
2024/02/06 10:00:52;;;;;;;1.92;0.75;;;18.30;53.10;;;;;;4228792;28;20092;-66
2024/02/06 10:02:59;;;;;;;6.82;0.98;;;18.20;52.60;;;;;;4227166;28;20085;-65
2024/02/06 10:05:03;;;;;;;4.45;2.03;;;18.20;52.90;;;;;;4226946;28;20422;-62
2024/02/06 10:07:04;;;;;;;3.33;0.70;;;18.30;53.50;;;;;;4227102;28;20437;-64
2024/02/06 10:09:07;;;;;;;2.38;0.90;;;18.20;52.50;;;;;;4228115;28;20084;-64
2024/02/06 10:11:09;;;;;;;5.20;0.98;;;18.20;52.60;;;;;;4227453;28;20105;-60
2024/02/06 10:13:11;;;;;;;4.88;0.80;;;18.20;52.30;;;;;;4228115;28;20501;-61
2024/02/06 10:15:23;;;;;;;3.38;1.10;;;18.20;52.50;;;;;;4227409;28;20023;-63
2024/02/06 10:17:24;;;;;;;3.75;1.05;;;18.20;51.40;;;;;;4228048;28;20442;-61
2024/02/06 10:19:32;;;;;;;4.82;0.60;;;18.10;52.30;;;;;;4226796;28;20065;-63
2024/02/06 10:21:34;;;;;;;3.70;0.60;;;18.20;52.00;;;;;;4227790;28;20061;-62
2024/02/06 10:23:36;;;;;;;4.80;0.55;;;18.20;52.40;;;;;;4226708;28;20035;-60
2024/02/06 10:25:37;;;;;;;7.43;1.30;;;18.30;52.50;;;;;;4227933;28;20087;-61
2024/02/06 10:27:38;;;;;;;1.63;0.45;;;18.30;52.20;;;;;;4226891;28;20111;-59
2024/02/06 10:29:39;;;;;;;6.47;0.50;;;18.30;52.10;;;;;;4227735;28;20032;-64
2024/02/06 10:31:40;;;;;;;2.95;0.40;;;18.20;51.70;;;;;;4227049;28;20040;-63
2024/02/06 10:33:42;;;;;;;4.20;0.65;;;18.20;51.60;;;;;;4227174;28;20065;-63
2024/02/06 10:35:44;;;;;;;3.15;0.50;;;18.20;51.70;;;;;;4226668;28;20537;-61